Terminal Aerodrome Forecast
Issued by NWS Buffalo, NY

Home | Current Version | Previous Version | Text Only | Print | Product List | Glossary On
Versions: 1 2 3 4 5 6 7 8 9 10 11 12 13 14 15 16 17 18 19 20 21 22 23 24 25 26
000
FTUS41 KBUF 050525
TAFART
TAF
KART 050525Z 0506/0606 23005KT P6SM BKN090
     FM051100 25006KT P6SM VCSH SCT250
     FM051700 25013KT 6SM -SHRA VCTS BKN080CB
     FM052100 25013KT 6SM -SHRA BKN045
     FM052200 25011KT P6SM VCSH BKN045
     FM060300 VRB03KT P6SM BKN050=

USA.gov is the U.S. government's official web portal to all federal, state and local government web resources and services.